sensor_id;sensor_type;location;lat;lon;timestamp;P1;durP1;ratioP1;P2;durP2;ratioP2
30723;SDS011;17473;52.286;20.930;2023-09-19T00:01:00;12.57;;;9.02;;
30723;SDS011;17473;52.286;20.930;2023-09-19T00:03:27;12.90;;;9.40;;
30723;SDS011;17473;52.286;20.930;2023-09-19T00:05:55;14.63;;;9.75;;
30723;SDS011;17473;52.286;20.930;2023-09-19T00:08:24;16.02;;;9.25;;
30723;SDS011;17473;52.286;20.930;2023-09-19T00:10:51;13.50;;;9.45;;
30723;SDS011;17473;52.286;20.930;2023-09-19T00:13:21;12.60;;;9.13;;
30723;SDS011;17473;52.286;20.930;2023-09-19T00:15:48;12.40;;;9.52;;
30723;SDS011;17473;52.286;20.930;2023-09-19T00:18:19;18.30;;;9.60;;
30723;SDS011;17473;52.286;20.930;2023-09-19T00:20:49;15.75;;;9.75;;
30723;SDS011;17473;52.286;20.930;2023-09-19T00:23:19;13.35;;;9.75;;
30723;SDS011;17473;52.286;20.930;2023-09-19T00:25:46;16.88;;;9.75;;
30723;SDS011;17473;52.286;20.930;2023-09-19T00:28:15;13.32;;;9.25;;
30723;SDS011;17473;52.286;20.930;2023-09-19T00:30:44;16.33;;;10.00;;
30723;SDS011;17473;52.286;20.930;2023-09-19T00:33:16;12.90;;;10.25;;
30723;SDS011;17473;52.286;20.930;2023-09-19T00:35:49;12.32;;;9.40;;
30723;SDS011;17473;52.286;20.930;2023-09-19T00:38:20;13.18;;;9.75;;
30723;SDS011;17473;52.286;20.930;2023-09-19T00:40:54;11.82;;;9.73;;
30723;SDS011;17473;52.286;20.930;2023-09-19T00:43:26;14.68;;;10.50;;
30723;SDS011;17473;52.286;20.930;2023-09-19T00:46:02;13.82;;;9.95;;
30723;SDS011;17473;52.286;20.930;2023-09-19T00:48:32;12.88;;;9.77;;
30723;SDS011;17473;52.286;20.930;2023-09-19T00:51:10;16.80;;;10.73;;
30723;SDS011;17473;52.286;20.930;2023-09-19T00:53:39;12.50;;;9.77;;
30723;SDS011;17473;52.286;20.930;2023-09-19T00:56:12;14.23;;;10.13;;
30723;SDS011;17473;52.286;20.930;2023-09-19T00:58:41;16.38;;;10.07;;
30723;SDS011;17473;52.286;20.930;2023-09-19T01:01:08;14.00;;;9.80;;
30723;SDS011;17473;52.286;20.930;2023-09-19T01:03:38;16.38;;;10.13;;
30723;SDS011;17473;52.286;20.930;2023-09-19T01:06:07;11.45;;;9.13;;
30723;SDS011;17473;52.286;20.930;2023-09-19T01:08:35;12.18;;;9.90;;
30723;SDS011;17473;52.286;20.930;2023-09-19T01:11:11;13.00;;;9.45;;
30723;SDS011;17473;52.286;20.930;2023-09-19T01:19:40;15.15;;;10.02;;
30723;SDS011;17473;52.286;20.930;2023-09-19T01:23:00;14.77;;;9.27;;
30723;SDS011;17473;52.286;20.930;2023-09-19T01:32:06;16.38;;;10.00;;
30723;SDS011;17473;52.286;20.930;2023-09-19T01:37:26;20.08;;;11.02;;
30723;SDS011;17473;52.286;20.930;2023-09-19T01:49:25;14.73;;;9.40;;
30723;SDS011;17473;52.286;20.930;2023-09-19T01:54:33;17.23;;;9.82;;
30723;SDS011;17473;52.286;20.930;2023-09-19T02:00:10;13.93;;;10.18;;
30723;SDS011;17473;52.286;20.930;2023-09-19T02:02:42;12.98;;;9.88;;
30723;SDS011;17473;52.286;20.930;2023-09-19T02:05:21;15.90;;;10.45;;
30723;SDS011;17473;52.286;20.930;2023-09-19T02:07:56;16.27;;;11.18;;
30723;SDS011;17473;52.286;20.930;2023-09-19T02:10:25;18.40;;;10.82;;
30723;SDS011;17473;52.286;20.930;2023-09-19T02:12:52;15.48;;;10.75;;
30723;SDS011;17473;52.286;20.930;2023-09-19T02:15:19;14.90;;;9.80;;
30723;SDS011;17473;52.286;20.930;2023-09-19T02:17:46;14.90;;;10.13;;
30723;SDS011;17473;52.286;20.930;2023-09-19T02:20:14;14.43;;;9.77;;
30723;SDS011;17473;52.286;20.930;2023-09-19T02:22:42;13.40;;;9.55;;
30723;SDS011;17473;52.286;20.930;2023-09-19T02:25:10;15.13;;;9.93;;
30723;SDS011;17473;52.286;20.930;2023-09-19T02:27:40;13.63;;;9.65;;
30723;SDS011;17473;52.286;20.930;2023-09-19T02:30:08;19.35;;;10.57;;
30723;SDS011;17473;52.286;20.930;2023-09-19T02:32:35;13.73;;;10.07;;
30723;SDS011;17473;52.286;20.930;2023-09-19T02:35:05;15.85;;;10.45;;
30723;SDS011;17473;52.286;20.930;2023-09-19T02:37:33;15.57;;;10.45;;
30723;SDS011;17473;52.286;20.930;2023-09-19T02:40:01;13.70;;;9.98;;
30723;SDS011;17473;52.286;20.930;2023-09-19T02:42:28;13.73;;;10.20;;
30723;SDS011;17473;52.286;20.930;2023-09-19T02:44:56;16.58;;;10.63;;
30723;SDS011;17473;52.286;20.930;2023-09-19T02:47:23;16.00;;;10.70;;
30723;SDS011;17473;52.286;20.930;2023-09-19T02:49:51;14.85;;;10.40;;
30723;SDS011;17473;52.286;20.930;2023-09-19T02:52:18;14.43;;;10.60;;
30723;SDS011;17473;52.286;20.930;2023-09-19T02:54:45;15.43;;;10.75;;
30723;SDS011;17473;52.286;20.930;2023-09-19T02:57:12;15.35;;;11.00;;
30723;SDS011;17473;52.286;20.930;2023-09-19T02:59:41;18.05;;;9.15;;
30723;SDS011;17473;52.286;20.930;2023-09-19T03:02:10;15.65;;;10.35;;
30723;SDS011;17473;52.286;20.930;2023-09-19T03:04:37;13.00;;;10.65;;
30723;SDS011;17473;52.286;20.930;2023-09-19T03:07:04;15.88;;;9.60;;
30723;SDS011;17473;52.286;20.930;2023-09-19T03:09:32;15.85;;;10.55;;
30723;SDS011;17473;52.286;20.930;2023-09-19T03:11:59;16.60;;;10.45;;
30723;SDS011;17473;52.286;20.930;2023-09-19T03:14:26;15.40;;;10.52;;
30723;SDS011;17473;52.286;20.930;2023-09-19T03:16:56;13.02;;;10.60;;
30723;SDS011;17473;52.286;20.930;2023-09-19T03:19:23;13.30;;;10.00;;
30723;SDS011;17473;52.286;20.930;2023-09-19T03:21:52;17.05;;;11.70;;
30723;SDS011;17473;52.286;20.930;2023-09-19T03:24:19;14.30;;;10.10;;
30723;SDS011;17473;52.286;20.930;2023-09-19T03:26:46;12.85;;;10.13;;
30723;SDS011;17473;52.286;20.930;2023-09-19T03:29:14;15.15;;;10.70;;
30723;SDS011;17473;52.286;20.930;2023-09-19T03:31:42;15.18;;;10.57;;
30723;SDS011;17473;52.286;20.930;2023-09-19T03:34:09;17.77;;;10.60;;
30723;SDS011;17473;52.286;20.930;2023-09-19T03:36:36;17.77;;;9.98;;
30723;SDS011;17473;52.286;20.930;2023-09-19T03:39:03;14.50;;;9.63;;
30723;SDS011;17473;52.286;20.930;2023-09-19T03:41:31;13.45;;;10.05;;
30723;SDS011;17473;52.286;20.930;2023-09-19T03:43:59;14.48;;;10.48;;
30723;SDS011;17473;52.286;20.930;2023-09-19T03:46:26;13.13;;;10.48;;
30723;SDS011;17473;52.286;20.930;2023-09-19T03:48:54;14.30;;;10.25;;
30723;SDS011;17473;52.286;20.930;2023-09-19T03:51:21;16.70;;;10.13;;
30723;SDS011;17473;52.286;20.930;2023-09-19T03:53:48;12.10;;;10.50;;
30723;SDS011;17473;52.286;20.930;2023-09-19T03:56:16;11.75;;;9.65;;
30723;SDS011;17473;52.286;20.930;2023-09-19T03:58:43;13.80;;;9.98;;
30723;SDS011;17473;52.286;20.930;2023-09-19T04:01:11;14.43;;;10.57;;
30723;SDS011;17473;52.286;20.930;2023-09-19T04:03:40;14.43;;;10.02;;
30723;SDS011;17473;52.286;20.930;2023-09-19T04:06:14;14.57;;;10.05;;
30723;SDS011;17473;52.286;20.930;2023-09-19T04:08:42;14.15;;;9.90;;
30723;SDS011;17473;52.286;20.930;2023-09-19T04:11:10;13.93;;;10.00;;
30723;SDS011;17473;52.286;20.930;2023-09-19T04:13:38;19.65;;;11.00;;
30723;SDS011;17473;52.286;20.930;2023-09-19T04:16:05;14.48;;;10.52;;
30723;SDS011;17473;52.286;20.930;2023-09-19T04:18:36;14.05;;;9.77;;
30723;SDS011;17473;52.286;20.930;2023-09-19T04:21:04;13.70;;;10.27;;
30723;SDS011;17473;52.286;20.930;2023-09-19T04:23:32;12.95;;;9.52;;
30723;SDS011;17473;52.286;20.930;2023-09-19T04:25:59;12.40;;;9.60;;
30723;SDS011;17473;52.286;20.930;2023-09-19T04:28:26;14.95;;;10.00;;
30723;SDS011;17473;52.286;20.930;2023-09-19T04:30:54;14.85;;;10.38;;
30723;SDS011;17473;52.286;20.930;2023-09-19T04:33:21;15.02;;;10.43;;
30723;SDS011;17473;52.286;20.930;2023-09-19T04:35:49;13.30;;;10.32;;
30723;SDS011;17473;52.286;20.930;2023-09-19T04:38:20;15.95;;;10.65;;
30723;SDS011;17473;52.286;20.930;2023-09-19T04:40:47;15.90;;;9.98;;
30723;SDS011;17473;52.286;20.930;2023-09-19T04:43:15;13.43;;;10.10;;
30723;SDS011;17473;52.286;20.930;2023-09-19T04:45:42;15.07;;;9.70;;
30723;SDS011;17473;52.286;20.930;2023-09-19T04:48:09;15.95;;;10.13;;
30723;SDS011;17473;52.286;20.930;2023-09-19T04:50:37;16.50;;;10.23;;
30723;SDS011;17473;52.286;20.930;2023-09-19T04:53:04;19.30;;;11.30;;
30723;SDS011;17473;52.286;20.930;2023-09-19T04:55:33;18.88;;;11.07;;
30723;SDS011;17473;52.286;20.930;2023-09-19T04:58:00;17.27;;;9.38;;
30723;SDS011;17473;52.286;20.930;2023-09-19T05:00:28;13.07;;;9.52;;
30723;SDS011;17473;52.286;20.930;2023-09-19T05:02:57;14.75;;;10.15;;
30723;SDS011;17473;52.286;20.930;2023-09-19T05:05:24;15.98;;;9.50;;
30723;SDS011;17473;52.286;20.930;2023-09-19T05:07:52;15.50;;;10.77;;
30723;SDS011;17473;52.286;20.930;2023-09-19T05:10:23;11.90;;;9.80;;
30723;SDS011;17473;52.286;20.930;2023-09-19T05:12:52;14.63;;;9.90;;
30723;SDS011;17473;52.286;20.930;2023-09-19T05:15:20;15.20;;;10.18;;
30723;SDS011;17473;52.286;20.930;2023-09-19T05:17:48;12.85;;;9.75;;
30723;SDS011;17473;52.286;20.930;2023-09-19T05:20:23;13.35;;;9.80;;
30723;SDS011;17473;52.286;20.930;2023-09-19T05:22:59;17.75;;;9.95;;
30723;SDS011;17473;52.286;20.930;2023-09-19T05:25:32;12.50;;;9.40;;
30723;SDS011;17473;52.286;20.930;2023-09-19T05:28:04;18.55;;;9.63;;
30723;SDS011;17473;52.286;20.930;2023-09-19T05:30:32;12.27;;;9.15;;
30723;SDS011;17473;52.286;20.930;2023-09-19T05:32:59;15.75;;;9.68;;
30723;SDS011;17473;52.286;20.930;2023-09-19T05:35:27;14.18;;;9.55;;
30723;SDS011;17473;52.286;20.930;2023-09-19T05:37:54;16.40;;;9.30;;
30723;SDS011;17473;52.286;20.930;2023-09-19T05:40:22;20.10;;;9.15;;
30723;SDS011;17473;52.286;20.930;2023-09-19T05:42:50;13.90;;;9.68;;
30723;SDS011;17473;52.286;20.930;2023-09-19T05:45:17;28.42;;;9.57;;
30723;SDS011;17473;52.286;20.930;2023-09-19T05:47:51;14.30;;;9.55;;
30723;SDS011;17473;52.286;20.930;2023-09-19T05:50:22;16.55;;;9.13;;
30723;SDS011;17473;52.286;20.930;2023-09-19T05:52:51;14.80;;;8.98;;
30723;SDS011;17473;52.286;20.930;2023-09-19T05:55:19;15.25;;;11.55;;
30723;SDS011;17473;52.286;20.930;2023-09-19T05:57:51;22.83;;;11.32;;
30723;SDS011;17473;52.286;20.930;2023-09-19T06:00:19;23.38;;;11.60;;
30723;SDS011;17473;52.286;20.930;2023-09-19T06:02:56;15.73;;;10.18;;
30723;SDS011;17473;52.286;20.930;2023-09-19T06:05:25;15.63;;;9.63;;
30723;SDS011;17473;52.286;20.930;2023-09-19T06:07:54;15.43;;;9.38;;
30723;SDS011;17473;52.286;20.930;2023-09-19T06:10:21;15.80;;;9.45;;
30723;SDS011;17473;52.286;20.930;2023-09-19T06:12:49;22.23;;;8.85;;
30723;SDS011;17473;52.286;20.930;2023-09-19T06:15:16;14.30;;;8.75;;
30723;SDS011;17473;52.286;20.930;2023-09-19T06:17:49;19.23;;;10.10;;
30723;SDS011;17473;52.286;20.930;2023-09-19T06:20:22;14.43;;;9.23;;
30723;SDS011;17473;52.286;20.930;2023-09-19T06:22:52;19.27;;;10.23;;
30723;SDS011;17473;52.286;20.930;2023-09-19T06:25:20;19.50;;;9.43;;
30723;SDS011;17473;52.286;20.930;2023-09-19T06:27:49;20.45;;;9.60;;
30723;SDS011;17473;52.286;20.930;2023-09-19T06:30:21;16.48;;;9.88;;
30723;SDS011;17473;52.286;20.930;2023-09-19T06:32:55;14.68;;;9.77;;
30723;SDS011;17473;52.286;20.930;2023-09-19T06:35:24;20.27;;;10.23;;
30723;SDS011;17473;52.286;20.930;2023-09-19T06:37:53;15.02;;;9.63;;
30723;SDS011;17473;52.286;20.930;2023-09-19T06:40:20;17.33;;;9.38;;
30723;SDS011;17473;52.286;20.930;2023-09-19T06:42:49;21.00;;;9.95;;
30723;SDS011;17473;52.286;20.930;2023-09-19T06:45:19;23.48;;;13.25;;
30723;SDS011;17473;52.286;20.930;2023-09-19T06:47:49;30.45;;;20.23;;
30723;SDS011;17473;52.286;20.930;2023-09-19T06:50:18;28.13;;;16.52;;
30723;SDS011;17473;52.286;20.930;2023-09-19T06:52:50;23.10;;;13.23;;
30723;SDS011;17473;52.286;20.930;2023-09-19T06:55:20;22.40;;;12.35;;
30723;SDS011;17473;52.286;20.930;2023-09-19T06:57:51;23.38;;;11.25;;
30723;SDS011;17473;52.286;20.930;2023-09-19T07:00:20;19.40;;;10.30;;
30723;SDS011;17473;52.286;20.930;2023-09-19T07:02:58;18.38;;;9.07;;
30723;SDS011;17473;52.286;20.930;2023-09-19T07:05:28;16.38;;;9.90;;
30723;SDS011;17473;52.286;20.930;2023-09-19T07:07:55;17.27;;;9.90;;
30723;SDS011;17473;52.286;20.930;2023-09-19T07:10:27;23.77;;;9.70;;
30723;SDS011;17473;52.286;20.930;2023-09-19T07:13:01;23.10;;;10.35;;
30723;SDS011;17473;52.286;20.930;2023-09-19T07:15:37;14.63;;;9.57;;
30723;SDS011;17473;52.286;20.930;2023-09-19T07:18:08;17.63;;;9.90;;
30723;SDS011;17473;52.286;20.930;2023-09-19T07:20:38;17.50;;;10.07;;
30723;SDS011;17473;52.286;20.930;2023-09-19T07:23:05;17.58;;;9.90;;
30723;SDS011;17473;52.286;20.930;2023-09-19T07:25:32;20.55;;;10.00;;
30723;SDS011;17473;52.286;20.930;2023-09-19T07:28:02;17.08;;;9.18;;
30723;SDS011;17473;52.286;20.930;2023-09-19T07:30:29;17.33;;;10.35;;
30723;SDS011;17473;52.286;20.930;2023-09-19T07:32:56;18.95;;;10.98;;
30723;SDS011;17473;52.286;20.930;2023-09-19T07:35:24;16.83;;;10.68;;
30723;SDS011;17473;52.286;20.930;2023-09-19T07:37:52;15.65;;;9.65;;
30723;SDS011;17473;52.286;20.930;2023-09-19T07:40:19;23.48;;;9.68;;
30723;SDS011;17473;52.286;20.930;2023-09-19T07:42:47;14.20;;;9.93;;
30723;SDS011;17473;52.286;20.930;2023-09-19T07:45:15;17.50;;;10.30;;
30723;SDS011;17473;52.286;20.930;2023-09-19T07:47:47;20.10;;;10.40;;
30723;SDS011;17473;52.286;20.930;2023-09-19T07:50:16;14.85;;;10.60;;
30723;SDS011;17473;52.286;20.930;2023-09-19T07:52:48;15.60;;;10.82;;
30723;SDS011;17473;52.286;20.930;2023-09-19T07:55:20;16.15;;;10.65;;
30723;SDS011;17473;52.286;20.930;2023-09-19T07:57:50;19.13;;;10.68;;
30723;SDS011;17473;52.286;20.930;2023-09-19T08:00:18;13.88;;;10.27;;
30723;SDS011;17473;52.286;20.930;2023-09-19T08:02:46;19.25;;;11.02;;
30723;SDS011;17473;52.286;20.930;2023-09-19T08:05:23;16.88;;;10.60;;
30723;SDS011;17473;52.286;20.930;2023-09-19T08:07:51;14.63;;;10.85;;
30723;SDS011;17473;52.286;20.930;2023-09-19T08:10:20;21.77;;;11.18;;
30723;SDS011;17473;52.286;20.930;2023-09-19T08:12:48;15.05;;;10.13;;
30723;SDS011;17473;52.286;20.930;2023-09-19T08:15:22;21.80;;;10.57;;
30723;SDS011;17473;52.286;20.930;2023-09-19T08:17:49;19.92;;;12.40;;
30723;SDS011;17473;52.286;20.930;2023-09-19T08:20:17;21.23;;;12.73;;
30723;SDS011;17473;52.286;20.930;2023-09-19T08:25:15;20.35;;;10.65;;
30723;SDS011;17473;52.286;20.930;2023-09-19T08:27:46;19.70;;;9.73;;
30723;SDS011;17473;52.286;20.930;2023-09-19T08:30:15;13.70;;;9.63;;
30723;SDS011;17473;52.286;20.930;2023-09-19T08:32:44;12.98;;;10.05;;
30723;SDS011;17473;52.286;20.930;2023-09-19T08:35:12;15.15;;;9.73;;
30723;SDS011;17473;52.286;20.930;2023-09-19T08:37:41;15.40;;;9.32;;
30723;SDS011;17473;52.286;20.930;2023-09-19T08:40:11;19.75;;;8.90;;
30723;SDS011;17473;52.286;20.930;2023-09-19T08:42:52;12.07;;;9.00;;
30723;SDS011;17473;52.286;20.930;2023-09-19T08:45:22;14.43;;;9.23;;
30723;SDS011;17473;52.286;20.930;2023-09-19T08:50:48;14.68;;;8.15;;
30723;SDS011;17473;52.286;20.930;2023-09-19T08:53:27;12.30;;;7.35;;
30723;SDS011;17473;52.286;20.930;2023-09-19T08:56:05;15.25;;;9.65;;
30723;SDS011;17473;52.286;20.930;2023-09-19T08:58:43;13.82;;;8.48;;
30723;SDS011;17473;52.286;20.930;2023-09-19T09:01:17;16.10;;;9.38;;
30723;SDS011;17473;52.286;20.930;2023-09-19T09:03:52;20.15;;;8.38;;
30723;SDS011;17473;52.286;20.930;2023-09-19T09:06:21;12.82;;;8.00;;
30723;SDS011;17473;52.286;20.930;2023-09-19T09:08:51;14.73;;;8.60;;
30723;SDS011;17473;52.286;20.930;2023-09-19T09:11:19;10.20;;;7.72;;
30723;SDS011;17473;52.286;20.930;2023-09-19T09:13:47;14.10;;;8.48;;
30723;SDS011;17473;52.286;20.930;2023-09-19T09:16:14;15.07;;;8.15;;
30723;SDS011;17473;52.286;20.930;2023-09-19T09:18:46;18.67;;;8.88;;
30723;SDS011;17473;52.286;20.930;2023-09-19T09:21:20;20.67;;;8.52;;
30723;SDS011;17473;52.286;20.930;2023-09-19T09:23:49;17.15;;;9.95;;
30723;SDS011;17473;52.286;20.930;2023-09-19T09:26:22;19.60;;;9.65;;
30723;SDS011;17473;52.286;20.930;2023-09-19T09:29:11;13.05;;;8.90;;
30723;SDS011;17473;52.286;20.930;2023-09-19T09:31:45;22.05;;;10.27;;
30723;SDS011;17473;52.286;20.930;2023-09-19T09:34:12;19.92;;;10.43;;
30723;SDS011;17473;52.286;20.930;2023-09-19T09:36:40;23.60;;;10.27;;
30723;SDS011;17473;52.286;20.930;2023-09-19T09:39:08;14.43;;;8.90;;
30723;SDS011;17473;52.286;20.930;2023-09-19T09:41:45;19.48;;;9.65;;
30723;SDS011;17473;52.286;20.930;2023-09-19T09:44:16;14.80;;;9.27;;
30723;SDS011;17473;52.286;20.930;2023-09-19T09:46:46;16.55;;;8.88;;
30723;SDS011;17473;52.286;20.930;2023-09-19T09:49:25;17.75;;;9.68;;
30723;SDS011;17473;52.286;20.930;2023-09-19T09:54:37;17.08;;;8.68;;
30723;SDS011;17473;52.286;20.930;2023-09-19T09:57:05;13.55;;;8.40;;
30723;SDS011;17473;52.286;20.930;2023-09-19T09:59:46;15.27;;;8.82;;
30723;SDS011;17473;52.286;20.930;2023-09-19T10:02:20;17.05;;;8.75;;
30723;SDS011;17473;52.286;20.930;2023-09-19T10:04:56;19.60;;;8.80;;
30723;SDS011;17473;52.286;20.930;2023-09-19T10:07:47;12.70;;;8.80;;
30723;SDS011;17473;52.286;20.930;2023-09-19T10:10:35;13.65;;;8.52;;
30723;SDS011;17473;52.286;20.930;2023-09-19T10:13:11;16.77;;;8.30;;
30723;SDS011;17473;52.286;20.930;2023-09-19T10:15:42;14.90;;;9.65;;
30723;SDS011;17473;52.286;20.930;2023-09-19T10:18:21;13.82;;;8.52;;
30723;SDS011;17473;52.286;20.930;2023-09-19T10:20:51;12.88;;;10.20;;
30723;SDS011;17473;52.286;20.930;2023-09-19T10:23:19;14.18;;;9.85;;
30723;SDS011;17473;52.286;20.930;2023-09-19T10:25:52;12.95;;;8.55;;
30723;SDS011;17473;52.286;20.930;2023-09-19T10:28:20;11.88;;;8.07;;
30723;SDS011;17473;52.286;20.930;2023-09-19T10:31:09;11.63;;;6.45;;
30723;SDS011;17473;52.286;20.930;2023-09-19T10:33:40;6.90;;;5.07;;
30723;SDS011;17473;52.286;20.930;2023-09-19T10:36:09;10.40;;;5.53;;
30723;SDS011;17473;52.286;20.930;2023-09-19T10:38:38;8.23;;;5.32;;
30723;SDS011;17473;52.286;20.930;2023-09-19T10:41:09;14.02;;;5.40;;
30723;SDS011;17473;52.286;20.930;2023-09-19T10:43:40;15.20;;;5.63;;
30723;SDS011;17473;52.286;20.930;2023-09-19T10:46:11;9.45;;;5.03;;
30723;SDS011;17473;52.286;20.930;2023-09-19T10:48:39;7.75;;;5.03;;
30723;SDS011;17473;52.286;20.930;2023-09-19T10:51:11;9.25;;;4.57;;
30723;SDS011;17473;52.286;20.930;2023-09-19T10:53:45;15.27;;;9.75;;
30723;SDS011;17473;52.286;20.930;2023-09-19T10:56:18;11.23;;;8.00;;
30723;SDS011;17473;52.286;20.930;2023-09-19T10:59:11;7.32;;;5.05;;
30723;SDS011;17473;52.286;20.930;2023-09-19T11:01:48;8.18;;;4.57;;
30723;SDS011;17473;52.286;20.930;2023-09-19T11:04:22;6.50;;;4.05;;
30723;SDS011;17473;52.286;20.930;2023-09-19T11:15:02;6.93;;;3.83;;
30723;SDS011;17473;52.286;20.930;2023-09-19T11:17:40;6.72;;;4.45;;
30723;SDS011;17473;52.286;20.930;2023-09-19T11:28:44;5.40;;;3.80;;
30723;SDS011;17473;52.286;20.930;2023-09-19T11:30:49;8.55;;;3.92;;
30723;SDS011;17473;52.286;20.930;2023-09-19T11:33:22;4.60;;;3.90;;
30723;SDS011;17473;52.286;20.930;2023-09-19T11:36:10;8.60;;;4.22;;
30723;SDS011;17473;52.286;20.930;2023-09-19T11:46:27;7.70;;;4.45;;
30723;SDS011;17473;52.286;20.930;2023-09-19T11:48:55;10.05;;;3.95;;
30723;SDS011;17473;52.286;20.930;2023-09-19T11:51:40;4.60;;;4.05;;
30723;SDS011;17473;52.286;20.930;2023-09-19T11:54:12;11.10;;;4.75;;
30723;SDS011;17473;52.286;20.930;2023-09-19T11:56:51;6.80;;;5.35;;
30723;SDS011;17473;52.286;20.930;2023-09-19T11:59:20;9.77;;;5.90;;
30723;SDS011;17473;52.286;20.930;2023-09-19T12:01:53;10.27;;;5.15;;
30723;SDS011;17473;52.286;20.930;2023-09-19T12:04:40;9.60;;;4.78;;
30723;SDS011;17473;52.286;20.930;2023-09-19T12:07:13;9.98;;;5.03;;
30723;SDS011;17473;52.286;20.930;2023-09-19T12:09:43;9.35;;;5.55;;
30723;SDS011;17473;52.286;20.930;2023-09-19T12:12:19;8.13;;;4.45;;
30723;SDS011;17473;52.286;20.930;2023-09-19T12:14:48;7.68;;;4.50;;
30723;SDS011;17473;52.286;20.930;2023-09-19T12:17:17;8.02;;;5.32;;
30723;SDS011;17473;52.286;20.930;2023-09-19T12:19:55;6.45;;;5.25;;
30723;SDS011;17473;52.286;20.930;2023-09-19T12:22:23;8.85;;;5.10;;
30723;SDS011;17473;52.286;20.930;2023-09-19T12:24:51;12.10;;;5.63;;
30723;SDS011;17473;52.286;20.930;2023-09-19T12:27:21;11.70;;;4.80;;
30723;SDS011;17473;52.286;20.930;2023-09-19T12:29:48;7.75;;;4.70;;
30723;SDS011;17473;52.286;20.930;2023-09-19T12:32:16;8.05;;;5.03;;
30723;SDS011;17473;52.286;20.930;2023-09-19T12:34:52;7.03;;;5.28;;
30723;SDS011;17473;52.286;20.930;2023-09-19T12:37:21;8.38;;;4.93;;
30723;SDS011;17473;52.286;20.930;2023-09-19T12:39:50;8.40;;;5.32;;
30723;SDS011;17473;52.286;20.930;2023-09-19T12:42:25;9.98;;;5.32;;
30723;SDS011;17473;52.286;20.930;2023-09-19T12:44:59;8.80;;;4.97;;
30723;SDS011;17473;52.286;20.930;2023-09-19T12:47:27;10.95;;;5.32;;
30723;SDS011;17473;52.286;20.930;2023-09-19T12:52:35;13.50;;;5.50;;
30723;SDS011;17473;52.286;20.930;2023-09-19T12:55:04;17.30;;;5.45;;
30723;SDS011;17473;52.286;20.930;2023-09-19T12:57:33;14.05;;;6.25;;
30723;SDS011;17473;52.286;20.930;2023-09-19T13:00:04;9.50;;;5.53;;
30723;SDS011;17473;52.286;20.930;2023-09-19T13:02:33;7.50;;;5.53;;
30723;SDS011;17473;52.286;20.930;2023-09-19T13:05:01;7.75;;;5.78;;
30723;SDS011;17473;52.286;20.930;2023-09-19T13:07:43;8.55;;;5.60;;
30723;SDS011;17473;52.286;20.930;2023-09-19T13:10:15;7.80;;;5.40;;
30723;SDS011;17473;52.286;20.930;2023-09-19T13:12:43;15.93;;;6.30;;
30723;SDS011;17473;52.286;20.930;2023-09-19T13:15:13;13.30;;;6.00;;
30723;SDS011;17473;52.286;20.930;2023-09-19T13:17:47;10.73;;;5.95;;
30723;SDS011;17473;52.286;20.930;2023-09-19T13:20:21;10.20;;;6.60;;
30723;SDS011;17473;52.286;20.930;2023-09-19T13:22:54;11.35;;;6.40;;
30723;SDS011;17473;52.286;20.930;2023-09-19T13:25:26;11.32;;;6.07;;
30723;SDS011;17473;52.286;20.930;2023-09-19T13:27:57;8.13;;;5.88;;
30723;SDS011;17473;52.286;20.930;2023-09-19T13:30:25;10.57;;;5.60;;
30723;SDS011;17473;52.286;20.930;2023-09-19T13:33:09;14.63;;;6.50;;
30723;SDS011;17473;52.286;20.930;2023-09-19T13:35:38;12.30;;;6.18;;
30723;SDS011;17473;52.286;20.930;2023-09-19T13:38:08;13.00;;;6.45;;
30723;SDS011;17473;52.286;20.930;2023-09-19T13:40:35;10.15;;;5.05;;
30723;SDS011;17473;52.286;20.930;2023-09-19T13:43:05;9.25;;;5.90;;
30723;SDS011;17473;52.286;20.930;2023-09-19T13:45:33;10.18;;;5.85;;
30723;SDS011;17473;52.286;20.930;2023-09-19T13:48:00;11.80;;;5.93;;
30723;SDS011;17473;52.286;20.930;2023-09-19T13:50:27;10.25;;;6.38;;
30723;SDS011;17473;52.286;20.930;2023-09-19T13:52:56;11.05;;;6.63;;
30723;SDS011;17473;52.286;20.930;2023-09-19T13:55:24;10.18;;;7.03;;
30723;SDS011;17473;52.286;20.930;2023-09-19T13:57:51;10.60;;;7.07;;
30723;SDS011;17473;52.286;20.930;2023-09-19T14:00:22;10.45;;;6.93;;
30723;SDS011;17473;52.286;20.930;2023-09-19T14:02:50;9.80;;;6.63;;
30723;SDS011;17473;52.286;20.930;2023-09-19T14:05:18;10.52;;;6.55;;
30723;SDS011;17473;52.286;20.930;2023-09-19T14:07:47;8.02;;;5.70;;
30723;SDS011;17473;52.286;20.930;2023-09-19T14:10:15;9.30;;;6.35;;
30723;SDS011;17473;52.286;20.930;2023-09-19T14:12:44;13.80;;;6.35;;
30723;SDS011;17473;52.286;20.930;2023-09-19T14:15:11;11.10;;;6.32;;
30723;SDS011;17473;52.286;20.930;2023-09-19T14:17:39;10.32;;;7.10;;
30723;SDS011;17473;52.286;20.930;2023-09-19T14:20:12;14.02;;;6.35;;
30723;SDS011;17473;52.286;20.930;2023-09-19T14:22:40;10.30;;;6.03;;
30723;SDS011;17473;52.286;20.930;2023-09-19T14:25:07;12.20;;;6.80;;
30723;SDS011;17473;52.286;20.930;2023-09-19T14:27:35;13.23;;;6.35;;
30723;SDS011;17473;52.286;20.930;2023-09-19T14:30:02;10.50;;;5.75;;
30723;SDS011;17473;52.286;20.930;2023-09-19T14:32:30;7.88;;;5.60;;
30723;SDS011;17473;52.286;20.930;2023-09-19T14:34:58;10.57;;;5.65;;
30723;SDS011;17473;52.286;20.930;2023-09-19T14:37:25;19.17;;;5.95;;
30723;SDS011;17473;52.286;20.930;2023-09-19T14:39:54;7.05;;;5.00;;
30723;SDS011;17473;52.286;20.930;2023-09-19T14:42:22;8.23;;;5.05;;
30723;SDS011;17473;52.286;20.930;2023-09-19T14:44:49;13.32;;;5.00;;
30723;SDS011;17473;52.286;20.930;2023-09-19T14:47:16;7.18;;;4.90;;
30723;SDS011;17473;52.286;20.930;2023-09-19T14:49:43;11.30;;;4.40;;
30723;SDS011;17473;52.286;20.930;2023-09-19T14:52:11;13.05;;;5.30;;
30723;SDS011;17473;52.286;20.930;2023-09-19T14:54:42;4.88;;;4.22;;
30723;SDS011;17473;52.286;20.930;2023-09-19T14:57:09;6.18;;;4.78;;
30723;SDS011;17473;52.286;20.930;2023-09-19T14:59:36;18.02;;;6.80;;
30723;SDS011;17473;52.286;20.930;2023-09-19T15:02:04;12.60;;;5.53;;
30723;SDS011;17473;52.286;20.930;2023-09-19T15:04:32;8.50;;;4.40;;
30723;SDS011;17473;52.286;20.930;2023-09-19T15:07:00;7.45;;;3.95;;
30723;SDS011;17473;52.286;20.930;2023-09-19T15:09:29;5.30;;;4.05;;
30723;SDS011;17473;52.286;20.930;2023-09-19T15:11:58;10.50;;;4.65;;
30723;SDS011;17473;52.286;20.930;2023-09-19T15:14:26;8.63;;;4.07;;
30723;SDS011;17473;52.286;20.930;2023-09-19T15:16:53;5.10;;;3.83;;
30723;SDS011;17473;52.286;20.930;2023-09-19T15:19:20;5.80;;;3.78;;
30723;SDS011;17473;52.286;20.930;2023-09-19T15:21:49;6.32;;;3.97;;
30723;SDS011;17473;52.286;20.930;2023-09-19T15:24:16;7.38;;;3.50;;
30723;SDS011;17473;52.286;20.930;2023-09-19T15:26:44;7.25;;;4.60;;
30723;SDS011;17473;52.286;20.930;2023-09-19T15:29:12;4.28;;;3.47;;
30723;SDS011;17473;52.286;20.930;2023-09-19T15:31:40;6.45;;;3.50;;
30723;SDS011;17473;52.286;20.930;2023-09-19T15:34:07;7.68;;;3.50;;
30723;SDS011;17473;52.286;20.930;2023-09-19T15:36:34;6.60;;;3.90;;
30723;SDS011;17473;52.286;20.930;2023-09-19T15:39:05;7.78;;;4.38;;
30723;SDS011;17473;52.286;20.930;2023-09-19T15:41:36;3.92;;;3.20;;
30723;SDS011;17473;52.286;20.930;2023-09-19T15:44:12;5.85;;;3.85;;